Time;durP1;ratioP1;P1;durP2;ratioP2;P2;SDS_P1;SDS_P2;PMS_P1;PMS_P2;Temp;Humidity;BMP_temperature;BMP_pressure;BME280_temperature;BME280_humidity;BME280_pressure;Samples;Min_cycle;Max_cycle;Signal;HPM_P1;HPM_P2
2023/06/09 00:00:51;;;;;;;11.88;9.40;;;;;;;13.28;100.00;93588.97;5029234;28;20057;-57
2023/06/09 00:03:21;;;;;;;12.30;8.87;;;;;;;13.26;100.00;93587.84;5030200;28;20045;-60
2023/06/09 00:05:48;;;;;;;12.60;9.27;;;;;;;13.29;100.00;93584.25;5029151;28;20038;-58
2023/06/09 00:08:15;;;;;;;11.60;9.18;;;;;;;13.28;100.00;93585.44;5021488;28;20053;-57
2023/06/09 00:10:42;;;;;;;14.02;10.07;;;;;;;12.99;100.00;93587.06;5024195;28;20045;-59
2023/06/09 00:13:09;;;;;;;13.88;10.32;;;;;;;12.54;100.00;93589.97;5029675;28;20049;-57
2023/06/09 00:15:37;;;;;;;11.80;9.60;;;;;;;12.63;100.00;93581.84;5028786;28;20057;-54
2023/06/09 00:18:04;;;;;;;16.13;9.77;;;;;;;12.72;100.00;93584.72;5029142;28;20055;-57
2023/06/09 00:20:33;;;;;;;21.77;14.60;;;;;;;12.75;100.00;93583.84;5029344;28;20154;-60
2023/06/09 00:23:01;;;;;;;15.13;10.88;;;;;;;12.72;100.00;93576.47;5028245;28;20057;-58
2023/06/09 00:25:28;;;;;;;13.32;10.13;;;;;;;12.79;100.00;93578.25;5029427;28;20053;-57
2023/06/09 00:27:55;;;;;;;13.00;9.40;;;;;;;12.77;100.00;93575.91;5028458;28;20092;-60
2023/06/09 00:30:22;;;;;;;12.85;9.60;;;;;;;12.82;100.00;93568.31;5019466;28;20537;-58
2023/06/09 00:33:05;;;;;;;12.38;9.65;;;;;;;12.77;100.00;93567.66;5011098;28;21938;-57
2023/06/09 00:35:32;;;;;;;12.57;10.02;;;;;;;12.75;100.00;93566.56;5029320;28;20049;-61
2023/06/09 00:37:59;;;;;;;13.13;9.48;;;;;;;12.74;100.00;93565.78;5027976;28;20044;-59
2023/06/09 00:40:26;;;;;;;13.97;10.23;;;;;;;12.74;100.00;93570.53;5029190;28;20037;-61
2023/06/09 00:42:53;;;;;;;80.00;48.95;;;;;;;12.73;100.00;93578.00;5011832;28;20432;-57
2023/06/09 00:45:19;;;;;;;47.60;31.35;;;;;;;12.76;100.00;93570.88;5009235;28;20418;-57
2023/06/09 00:47:46;;;;;;;18.77;12.35;;;;;;;12.74;100.00;93573.28;5027215;28;20049;-57
2023/06/09 00:50:16;;;;;;;13.88;11.02;;;;;;;12.73;100.00;93569.75;5027599;28;20130;-60
2023/06/09 00:52:45;;;;;;;12.97;10.30;;;;;;;12.43;100.00;93571.00;5027903;28;20478;-58
2023/06/09 00:55:12;;;;;;;12.73;9.88;;;;;;;12.48;100.00;93569.72;5028855;28;20045;-55
2023/06/09 00:57:43;;;;;;;14.00;10.30;;;;;;;12.47;100.00;93568.16;5002785;28;20049;-58
2023/06/09 01:00:15;;;;;;;15.63;10.48;;;;;;;12.29;100.00;93561.16;5028188;28;20046;-54
2023/06/09 01:02:42;;;;;;;12.60;10.20;;;;;;;11.99;100.00;93560.41;5027695;28;20048;-64
2023/06/09 01:05:12;;;;;;;12.80;9.93;;;;;;;12.09;100.00;93555.81;5028904;28;20394;-57
2023/06/09 01:08:22;;;;;;;12.68;9.88;;;;;;;12.14;100.00;93557.25;5059528;28;20552;-57
2023/06/09 01:10:52;;;;;;;13.35;10.07;;;;;;;12.15;100.00;93562.34;5027238;28;20047;-57
2023/06/09 01:13:38;;;;;;;14.13;10.77;;;;;;;12.16;100.00;93568.59;5028414;28;20056;-56
2023/06/09 01:16:23;;;;;;;12.90;10.15;;;;;;;12.18;100.00;93571.69;5026896;28;20710;-57
2023/06/09 01:18:52;;;;;;;12.83;9.77;;;;;;;12.16;100.00;93571.34;5027353;28;20049;-57
2023/06/09 01:21:44;;;;;;;12.65;10.02;;;;;;;12.04;100.00;93561.84;5027927;28;20391;-60
2023/06/09 01:24:45;;;;;;;14.65;9.95;;;;;;;12.05;100.00;93568.09;5027035;28;20150;-60
2023/06/09 01:27:17;;;;;;;14.20;10.32;;;;;;;12.02;100.00;93567.00;5025230;28;20068;-57
2023/06/09 01:29:46;;;;;;;13.98;10.57;;;;;;;12.08;100.00;93570.75;5022765;28;20107;-60
2023/06/09 01:32:15;;;;;;;13.07;10.03;;;;;;;12.09;100.00;93563.28;5006744;28;20123;-58
2023/06/09 01:34:43;;;;;;;13.05;9.80;;;;;;;11.97;100.00;93573.81;5008047;28;20049;-59
2023/06/09 01:37:12;;;;;;;13.27;10.27;;;;;;;11.83;100.00;93567.84;5039870;28;20046;-57
2023/06/09 01:39:40;;;;;;;13.15;10.68;;;;;;;11.37;100.00;93576.06;4982593;28;20038;-61
2023/06/09 01:42:07;;;;;;;15.38;11.32;;;;;;;10.99;100.00;93582.03;5007905;28;20483;-56
2023/06/09 01:44:34;;;;;;;14.80;10.50;;;;;;;11.28;100.00;93590.38;5008305;28;20046;-55
2023/06/09 01:47:01;;;;;;;14.82;10.82;;;;;;;11.37;100.00;93596.06;5021930;28;20054;-57
2023/06/09 01:49:45;;;;;;;13.55;10.23;;;;;;;11.30;100.00;93587.22;5008458;28;20150;-61
2023/06/09 01:52:24;;;;;;;14.80;10.75;;;;;;;11.31;100.00;93592.28;5025403;28;20555;-56
2023/06/09 01:54:57;;;;;;;15.30;11.25;;;;;;;11.31;100.00;93584.03;5026999;28;20045;-59
2023/06/09 01:57:50;;;;;;;13.33;10.17;;;;;;;11.39;100.00;93577.16;5028064;28;20037;-55
2023/06/09 02:00:20;;;;;;;13.65;10.13;;;;;;;11.45;100.00;93587.63;5026593;28;20045;-60
2023/06/09 02:02:50;;;;;;;15.52;11.38;;;;;;;11.40;100.00;93583.44;5026719;28;20041;-56
2023/06/09 02:05:19;;;;;;;15.52;10.90;;;;;;;11.26;100.00;93586.53;5014390;28;20050;-57
2023/06/09 02:07:48;;;;;;;14.55;11.10;;;;;;;11.28;100.00;93584.13;5026769;28;20045;-58
2023/06/09 02:10:16;;;;;;;13.70;10.17;;;;;;;11.30;100.00;93585.22;5027138;28;20418;-61
2023/06/09 02:12:42;;;;;;;13.93;10.85;;;;;;;11.28;100.00;93584.88;5022189;28;20056;-59
2023/06/09 02:15:09;;;;;;;13.40;9.93;;;;;;;11.29;100.00;93580.16;5008196;28;20047;-57
2023/06/09 02:17:36;;;;;;;15.93;11.48;;;;;;;11.30;100.00;93578.97;5019936;28;20049;-57
2023/06/09 02:20:05;;;;;;;14.65;11.15;;;;;;;11.27;100.00;93575.13;5013392;28;21563;-61
2023/06/09 02:22:32;;;;;;;15.30;10.73;;;;;;;11.21;100.00;93574.06;5009151;28;20072;-57
2023/06/09 02:24:59;;;;;;;14.10;10.40;;;;;;;11.10;100.00;93574.31;5026108;28;20067;-57
2023/06/09 02:27:26;;;;;;;15.48;11.05;;;;;;;11.15;100.00;93571.06;5026247;28;20056;-57
2023/06/09 02:29:53;;;;;;;14.73;10.70;;;;;;;11.22;100.00;93572.88;5024326;28;20052;-57
2023/06/09 02:32:20;;;;;;;15.07;10.90;;;;;;;11.20;100.00;93569.78;5009226;28;20056;-57
2023/06/09 02:34:47;;;;;;;12.87;10.33;;;;;;;11.17;100.00;93567.91;5026639;28;20142;-64
2023/06/09 02:37:13;;;;;;;13.85;9.75;;;;;;;11.18;100.00;93561.94;5027326;28;20041;-60
2023/06/09 02:39:41;;;;;;;13.73;10.60;;;;;;;11.12;100.00;93565.66;5030192;28;20045;-58
2023/06/09 02:42:08;;;;;;;14.13;10.18;;;;;;;11.11;100.00;93564.13;5031200;28;20413;-57
2023/06/09 02:44:38;;;;;;;13.52;10.68;;;;;;;11.17;100.00;93556.91;5031444;28;20046;-57
2023/06/09 02:47:05;;;;;;;13.53;10.00;;;;;;;11.13;100.00;93565.22;5027726;28;20590;-57
2023/06/09 02:49:32;;;;;;;13.43;10.30;;;;;;;11.10;100.00;93555.09;5031137;28;20053;-55
2023/06/09 02:51:59;;;;;;;13.93;10.32;;;;;;;11.09;100.00;93558.28;5028871;28;20042;-55
2023/06/09 02:54:26;;;;;;;14.63;10.68;;;;;;;11.06;100.00;93559.88;5018785;28;20045;-58
2023/06/09 02:56:53;;;;;;;13.20;10.52;;;;;;;11.01;100.00;93557.66;5029917;28;20459;-57
2023/06/09 02:59:20;;;;;;;15.43;10.07;;;;;;;10.94;100.00;93558.56;5030895;28;20055;-60
2023/06/09 03:01:47;;;;;;;13.85;10.15;;;;;;;10.95;100.00;93553.88;5030059;28;20079;-60
2023/06/09 03:04:17;;;;;;;14.98;10.93;;;;;;;10.92;100.00;93549.22;5030965;28;20041;-57
2023/06/09 03:06:44;;;;;;;14.77;10.65;;;;;;;10.89;100.00;93548.13;5030525;28;20051;-57
2023/06/09 03:09:12;;;;;;;15.38;10.50;;;;;;;10.86;100.00;93545.44;5030383;28;20067;-61
2023/06/09 03:11:39;;;;;;;14.57;10.43;;;;;;;10.84;100.00;93545.88;5030633;28;20041;-61
2023/06/09 03:14:08;;;;;;;13.82;10.40;;;;;;;10.89;100.00;93556.34;5013589;28;20045;-57
2023/06/09 03:16:35;;;;;;;15.07;11.07;;;;;;;10.89;100.00;93555.59;5014469;28;20060;-56
2023/06/09 03:19:02;;;;;;;13.48;10.57;;;;;;;10.86;100.00;93557.19;5029291;28;20253;-57
2023/06/09 03:21:29;;;;;;;14.85;10.70;;;;;;;10.89;100.00;93559.09;5030293;28;20127;-58
2023/06/09 03:23:56;;;;;;;14.23;10.27;;;;;;;10.91;100.00;93553.94;5030052;28;20041;-58
2023/06/09 03:26:25;;;;;;;14.00;10.40;;;;;;;10.89;100.00;93556.34;5030580;28;20284;-60
2023/06/09 03:28:51;;;;;;;14.70;10.90;;;;;;;10.82;100.00;93553.00;5021691;28;20517;-60
2023/06/09 03:31:20;;;;;;;15.35;10.85;;;;;;;10.64;100.00;93559.63;5024391;28;20059;-58
2023/06/09 03:33:47;;;;;;;15.55;11.00;;;;;;;10.49;100.00;93558.41;5029978;28;20041;-60
2023/06/09 03:36:13;;;;;;;13.90;10.87;;;;;;;10.49;100.00;93559.16;5029944;28;20050;-57
2023/06/09 03:38:40;;;;;;;14.68;11.10;;;;;;;10.53;100.00;93556.34;5029886;28;20040;-58
2023/06/09 03:41:07;;;;;;;14.20;10.77;;;;;;;10.64;100.00;93559.63;5030264;28;20041;-61
2023/06/09 03:43:33;;;;;;;13.90;10.95;;;;;;;10.73;100.00;93557.09;5030208;28;20044;-59
2023/06/09 03:46:00;;;;;;;15.50;11.63;;;;;;;10.83;100.00;93557.28;5029307;28;20088;-57
2023/06/09 03:48:27;;;;;;;15.23;11.20;;;;;;;10.86;100.00;93564.66;5029996;28;20387;-57
2023/06/09 03:50:54;;;;;;;15.50;11.27;;;;;;;10.92;100.00;93571.97;5027609;28;20052;-57
2023/06/09 03:53:20;;;;;;;14.82;11.75;;;;;;;10.99;100.00;93569.06;5030195;28;20045;-57
2023/06/09 03:55:47;;;;;;;16.08;11.63;;;;;;;11.03;100.00;93568.19;5029306;28;20045;-60
2023/06/09 03:58:14;;;;;;;15.70;11.55;;;;;;;10.87;100.00;93574.47;5028217;28;20068;-57
2023/06/09 04:00:42;;;;;;;17.77;12.13;;;;;;;10.71;100.00;93570.47;5029141;28;20115;-57
2023/06/09 04:03:09;;;;;;;15.77;11.10;;;;;;;10.81;100.00;93576.94;5028280;28;20049;-57
2023/06/09 04:05:36;;;;;;;15.55;11.45;;;;;;;10.94;100.00;93569.56;5029479;28;20045;-60
2023/06/09 04:08:02;;;;;;;15.40;11.02;;;;;;;11.02;100.00;93581.16;5028469;28;20417;-61
2023/06/09 04:10:29;;;;;;;14.27;11.25;;;;;;;11.11;100.00;93577.84;5029529;28;20544;-59
2023/06/09 04:12:56;;;;;;;14.57;11.00;;;;;;;11.23;100.00;93577.16;5022647;28;20038;-58
2023/06/09 04:15:23;;;;;;;15.18;11.02;;;;;;;11.32;100.00;93577.34;5010454;28;20057;-60
2023/06/09 04:17:49;;;;;;;14.50;11.30;;;;;;;11.36;100.00;93577.25;5023618;28;20079;-57
2023/06/09 04:20:21;;;;;;;14.25;10.70;;;;;;;11.47;100.00;93577.00;5028765;28;20053;-57
2023/06/09 04:22:49;;;;;;;16.10;11.13;;;;;;;11.55;100.00;93584.66;5027602;28;20049;-57
2023/06/09 04:25:16;;;;;;;16.37;11.10;;;;;;;11.68;100.00;93589.44;5029176;28;20061;-57
2023/06/09 04:27:43;;;;;;;15.57;11.18;;;;;;;12.03;100.00;93579.53;5028581;28;20060;-57
2023/06/09 04:30:11;;;;;;;15.00;11.70;;;;;;;12.87;100.00;93576.06;5027259;28;20160;-61
2023/06/09 04:32:37;;;;;;;14.75;11.45;;;;;;;13.58;100.00;93573.09;5028876;28;20041;-60
2023/06/09 04:35:05;;;;;;;13.70;11.10;;;;;;;14.04;100.00;93568.03;5028676;28;20048;-57
2023/06/09 04:37:32;;;;;;;14.00;11.60;;;;;;;13.57;100.00;93572.34;5011878;28;20677;-60
2023/06/09 04:39:59;;;;;;;16.10;11.45;;;;;;;13.24;100.00;93571.00;5026595;28;20068;-57
2023/06/09 04:42:25;;;;;;;13.75;11.63;;;;;;;12.82;100.00;93579.34;5017949;28;20048;-57
2023/06/09 04:44:53;;;;;;;14.15;11.48;;;;;;;12.50;100.00;93581.03;5027391;28;20498;-57
2023/06/09 04:47:24;;;;;;;14.18;11.20;;;;;;;12.77;100.00;93586.94;5028608;28;20167;-58
2023/06/09 04:49:53;;;;;;;15.50;11.63;;;;;;;12.82;100.00;93579.34;5028504;28;20095;-57
2023/06/09 04:52:20;;;;;;;14.18;11.70;;;;;;;12.95;100.00;93580.13;5002620;28;20167;-56
2023/06/09 04:54:51;;;;;;;16.00;12.30;;;;;;;12.83;100.00;93589.16;5028294;28;20055;-57
2023/06/09 04:57:18;;;;;;;15.40;12.02;;;;;;;12.58;100.00;93590.66;5028446;28;20057;-60
2023/06/09 04:59:45;;;;;;;14.68;12.13;;;;;;;12.39;100.00;93587.63;5028247;28;20401;-57
2023/06/09 05:02:12;;;;;;;15.90;12.23;;;;;;;12.32;100.00;93589.78;5027555;28;20045;-57
2023/06/09 05:04:39;;;;;;;15.80;11.98;;;;;;;12.61;100.00;93595.25;5028106;28;20057;-58
2023/06/09 05:07:06;;;;;;;16.45;12.13;;;;;;;12.84;100.00;93588.72;5025857;28;20119;-58
2023/06/09 05:09:33;;;;;;;16.08;12.15;;;;;;;12.59;100.00;93592.94;5027455;28;20053;-60
2023/06/09 05:12:00;;;;;;;16.42;12.43;;;;;;;12.67;100.00;93590.75;5027402;28;20041;-57
2023/06/09 05:14:26;;;;;;;16.73;12.23;;;;;;;13.09;100.00;93581.69;5028332;28;20041;-57
2023/06/09 05:16:58;;;;;;;16.23;12.95;;;;;;;13.72;100.00;93600.22;5026883;28;20059;-57
2023/06/09 05:19:24;;;;;;;15.75;12.40;;;;;;;16.13;100.00;93594.94;5026939;28;20049;-57
2023/06/09 05:21:51;;;;;;;15.13;11.75;;;;;;;18.44;95.88;93580.41;5025982;28;20049;-58
2023/06/09 05:24:18;;;;;;;12.65;10.90;;;;;;;20.53;81.92;93589.34;5027837;28;20075;-60
2023/06/09 05:26:45;;;;;;;13.97;11.10;;;;;;;20.67;76.19;93591.31;5027633;28;20045;-58
2023/06/09 05:29:12;;;;;;;12.43;10.60;;;;;;;21.35;71.05;93584.41;5027561;28;20045;-59
2023/06/09 05:31:38;;;;;;;12.20;10.90;;;;;;;22.50;66.28;93582.66;5007998;28;20049;-58
2023/06/09 05:34:05;;;;;;;11.82;10.20;;;;;;;23.62;62.76;93580.63;5007879;28;20050;-58
2023/06/09 05:36:32;;;;;;;14.27;10.65;;;;;;;24.83;56.29;93587.81;5008240;28;20037;-58
2023/06/09 05:38:59;;;;;;;11.53;10.30;;;;;;;23.52;58.61;93586.50;5007500;28;20045;-58
2023/06/09 05:41:25;;;;;;;13.80;10.98;;;;;;;24.89;54.71;93582.16;5008283;28;20041;-58
2023/06/09 05:43:53;;;;;;;10.70;9.60;;;;;;;26.68;48.85;93590.50;5007544;28;20049;-62
2023/06/09 05:46:20;;;;;;;12.55;11.25;;;;;;;25.78;49.46;93596.97;4981886;28;20119;-60
2023/06/09 05:48:47;;;;;;;11.35;9.90;;;;;;;26.73;47.14;93593.78;5006337;28;20046;-58
2023/06/09 05:51:13;;;;;;;11.63;10.30;;;;;;;24.96;51.92;93597.72;5010208;28;20077;-58
2023/06/09 05:53:41;;;;;;;11.18;9.55;;;;;;;25.28;51.26;93593.22;5007708;28;20113;-60
2023/06/09 05:56:07;;;;;;;10.85;9.75;;;;;;;26.35;46.96;93600.03;5006485;28;20072;-61
2023/06/09 05:58:34;;;;;;;10.70;9.30;;;;;;;26.40;47.25;93590.78;5008153;28;20399;-59
2023/06/09 06:01:03;;;;;;;11.45;8.93;;;;;;;27.41;45.36;93588.06;5006925;28;20068;-62
2023/06/09 06:03:32;;;;;;;8.23;7.43;;;;;;;26.56;46.66;93591.91;5008036;28;20337;-63
2023/06/09 06:06:00;;;;;;;8.20;7.22;;;;;;;28.62;42.72;93587.88;4973077;28;20050;-67
2023/06/09 06:08:26;;;;;;;9.52;7.15;;;;;;;29.19;40.01;93584.66;5005128;28;20037;-63
2023/06/09 06:10:53;;;;;;;9.90;6.85;;;;;;;29.25;39.03;93578.91;5013356;28;20056;-59
2023/06/09 06:13:20;;;;;;;8.13;7.32;;;;;;;30.52;36.77;93582.59;5013554;28;20041;-58
2023/06/09 06:15:46;;;;;;;9.13;7.37;;;;;;;31.49;34.92;93575.75;5017400;28;20041;-55
2023/06/09 06:18:14;;;;;;;10.75;6.53;;;;;;;31.90;34.06;93574.72;5019033;28;20046;-60
2023/06/09 06:20:40;;;;;;;7.25;6.40;;;;;;;30.53;34.62;93576.38;5016754;28;20040;-57
2023/06/09 06:23:08;;;;;;;7.63;6.18;;;;;;;29.71;34.96;93578.66;5018189;28;20042;-57
2023/06/09 06:25:41;;;;;;;6.65;5.95;;;;;;;31.76;32.70;93588.31;5014874;28;20073;-59
2023/06/09 06:28:09;;;;;;;7.70;7.00;;;;;;;26.90;39.38;93588.69;5011972;28;20050;-59
2023/06/09 06:30:39;;;;;;;7.13;6.43;;;;;;;28.73;37.58;93577.66;5013347;28;20202;-59
2023/06/09 06:33:07;;;;;;;7.55;6.85;;;;;;;30.35;34.23;93585.88;4999873;28;21582;-67
2023/06/09 06:35:34;;;;;;;7.20;6.50;;;;;;;30.14;34.35;93580.94;4995590;28;20039;-59
2023/06/09 06:38:01;;;;;;;9.02;6.40;;;;;;;30.90;33.40;93587.75;5003116;28;20053;-63
2023/06/09 06:40:28;;;;;;;7.70;7.00;;;;;;;24.41;44.70;93589.75;5015638;28;20418;-59
2023/06/09 06:42:55;;;;;;;7.35;6.38;;;;;;;26.73;42.83;93588.91;5013026;28;20045;-58
2023/06/09 06:45:22;;;;;;;6.63;6.03;;;;;;;30.59;35.10;93588.31;5010170;28;20152;-58
2023/06/09 06:47:49;;;;;;;6.82;5.88;;;;;;;31.65;32.60;93578.06;5009908;28;20135;-63
2023/06/09 06:50:16;;;;;;;6.50;5.90;;;;;;;32.59;30.51;93588.22;5006059;28;20076;-65
2023/06/09 06:52:43;;;;;;;6.80;5.77;;;;;;;33.80;28.88;93584.81;4993349;28;20050;-60
2023/06/09 06:55:10;;;;;;;6.15;5.55;;;;;;;34.56;27.61;93585.63;4992904;28;20053;-64
2023/06/09 06:57:39;;;;;;;7.18;5.55;;;;;;;35.09;26.84;93586.44;4995381;28;20431;-59
2023/06/09 07:00:12;;;;;;;7.00;5.40;;;;;;;34.99;26.75;93584.28;5009803;28;20057;-59
2023/06/09 07:02:39;;;;;;;6.80;5.60;;;;;;;31.06;31.31;93590.09;4991966;28;20050;-62
2023/06/09 07:05:08;;;;;;;6.13;5.27;;;;;;;33.18;28.60;93593.63;4992782;28;20042;-61
2023/06/09 07:07:35;;;;;;;7.43;5.15;;;;;;;33.57;28.54;93587.75;4993504;28;20043;-67
2023/06/09 07:10:02;;;;;;;6.05;5.00;;;;;;;32.25;29.56;93586.47;4994466;28;20050;-61
2023/06/09 07:12:29;;;;;;;7.13;5.22;;;;;;;29.74;33.25;93592.47;4993118;28;20066;-59
2023/06/09 07:14:56;;;;;;;7.00;5.85;;;;;;;31.29;30.63;93595.13;4997771;28;20492;-59
2023/06/09 07:17:23;;;;;;;6.00;5.40;;;;;;;31.85;29.98;93587.75;4996954;28;20042;-64
2023/06/09 07:19:50;;;;;;;6.85;5.30;;;;;;;29.45;33.00;93597.97;4998943;28;20138;-63
2023/06/09 07:22:17;;;;;;;6.70;5.53;;;;;;;29.75;33.05;93593.25;4994727;28;20052;-65
2023/06/09 07:24:44;;;;;;;6.20;5.20;;;;;;;30.75;31.46;93594.06;4998343;28;20491;-61
2023/06/09 07:27:10;;;;;;;6.00;5.40;;;;;;;28.37;34.65;93603.44;4999198;28;20054;-60
2023/06/09 07:29:37;;;;;;;6.77;5.43;;;;;;;29.07;34.50;93600.31;5006307;28;20052;-61
2023/06/09 07:32:04;;;;;;;6.75;5.25;;;;;;;32.18;30.57;93599.38;5019930;28;20049;-59
2023/06/09 07:34:33;;;;;;;5.97;5.30;;;;;;;29.99;32.22;93600.63;5018491;28;20050;-62
2023/06/09 07:37:03;;;;;;;6.07;5.47;;;;;;;31.44;30.42;93594.44;5026674;28;20170;-61
2023/06/09 07:39:31;;;;;;;6.47;5.30;;;;;;;33.77;28.35;93603.06;5026621;28;20045;-60
2023/06/09 07:41:57;;;;;;;7.27;5.00;;;;;;;30.99;30.48;93604.25;5025356;28;20398;-61
2023/06/09 07:44:25;;;;;;;6.13;5.10;;;;;;;30.26;31.62;93610.50;5021536;28;20057;-64
2023/06/09 07:46:52;;;;;;;5.90;5.18;;;;;;;29.50;32.48;93606.88;5004819;28;20068;-65
2023/06/09 07:49:18;;;;;;;7.95;5.57;;;;;;;29.35;33.05;93607.47;5007506;28;20303;-62
2023/06/09 07:51:49;;;;;;;5.80;5.20;;;;;;;28.26;34.18;93610.81;5003850;28;20038;-62
2023/06/09 07:54:16;;;;;;;5.77;5.03;;;;;;;27.99;34.76;93609.22;5005434;28;20434;-62
2023/06/09 07:56:48;;;;;;;6.03;5.15;;;;;;;31.05;30.46;93602.78;5001572;28;20482;-62
2023/06/09 07:59:17;;;;;;;5.68;5.07;;;;;;;25.72;35.64;93610.31;5016569;28;20050;-64
2023/06/09 08:01:44;;;;;;;5.97;5.20;;;;;;;27.69;34.98;93596.09;5015431;28;20061;-64
2023/06/09 08:04:11;;;;;;;7.82;5.40;;;;;;;29.08;32.59;93601.84;5012004;28;20054;-63
2023/06/09 08:06:39;;;;;;;5.30;4.60;;;;;;;29.91;31.72;93592.06;5002009;28;20053;-60
2023/06/09 08:09:06;;;;;;;5.72;4.53;;;;;;;29.83;31.75;93603.31;5002098;28;20495;-60
2023/06/09 08:11:33;;;;;;;5.22;4.65;;;;;;;29.81;31.38;93602.34;5005592;28;20064;-60
2023/06/09 08:13:59;;;;;;;5.80;4.88;;;;;;;28.24;33.53;93596.47;4995344;28;20513;-58
2023/06/09 08:16:26;;;;;;;5.10;4.28;;;;;;;31.38;30.01;93577.56;4997490;28;20154;-62
2023/06/09 08:18:53;;;;;;;5.47;4.47;;;;;;;32.47;28.21;93579.28;4995922;28;20069;-64
2023/06/09 08:21:20;;;;;;;6.05;4.40;;;;;;;30.72;30.78;93590.25;4995499;28;20049;-64
2023/06/09 08:23:47;;;;;;;5.97;4.75;;;;;;;28.33;33.00;93589.66;4994909;28;20052;-62
2023/06/09 08:26:14;;;;;;;5.60;4.93;;;;;;;28.99;32.33;93580.44;5015105;28;20069;-59
2023/06/09 08:28:41;;;;;;;5.63;5.03;;;;;;;24.26;40.21;93589.25;5015531;28;20037;-59
2023/06/09 08:31:08;;;;;;;5.60;5.00;;;;;;;27.69;34.91;93579.94;5023578;28;20122;-60
2023/06/09 08:33:36;;;;;;;6.38;4.90;;;;;;;26.63;36.27;93580.06;5018258;28;20587;-62
2023/06/09 08:36:04;;;;;;;6.00;5.30;;;;;;;24.89;40.22;93590.59;5008459;28;20731;-64
2023/06/09 08:38:32;;;;;;;5.95;4.95;;;;;;;28.91;33.83;93570.34;4996828;28;20038;-63
2023/06/09 08:41:10;;;;;;;6.97;5.40;;;;;;;23.81;42.54;93586.53;5000149;28;20041;-65
2023/06/09 08:43:37;;;;;;;6.90;5.60;;;;;;;26.49;38.65;93578.41;4999282;28;20643;-64
2023/06/09 08:46:08;;;;;;;5.90;4.80;;;;;;;29.95;32.20;93578.34;5001098;28;20099;-60
2023/06/09 08:48:38;;;;;;;5.88;4.65;;;;;;;31.15;30.25;93574.66;5000761;28;20038;-62
2023/06/09 08:51:05;;;;;;;5.13;4.32;;;;;;;29.80;30.79;93575.34;5003051;28;20042;-60
2023/06/09 08:53:32;;;;;;;5.25;4.75;;;;;;;28.51;33.08;93585.25;4999012;28;20679;-63
2023/06/09 08:56:00;;;;;;;6.00;4.73;;;;;;;28.44;33.08;93574.59;5005112;28;20052;-65
2023/06/09 08:58:27;;;;;;;5.88;4.80;;;;;;;29.12;33.37;93573.28;5009542;28;20560;-62
2023/06/09 09:00:54;;;;;;;5.95;4.47;;;;;;;29.55;31.27;93581.31;5014048;28;20045;-60
2023/06/09 09:03:22;;;;;;;5.75;4.70;;;;;;;29.71;31.30;93579.44;5022188;28;20092;-59
2023/06/09 09:05:49;;;;;;;5.68;5.07;;;;;;;28.58;33.38;93576.13;5022779;28;20042;-59
2023/06/09 09:08:19;;;;;;;5.63;5.00;;;;;;;28.40;32.57;93579.78;5006253;28;20079;-59
2023/06/09 09:10:46;;;;;;;5.18;4.68;;;;;;;29.62;31.38;93571.38;5027274;28;20052;-59
2023/06/09 09:13:13;;;;;;;6.45;4.88;;;;;;;30.20;30.97;93573.09;5029585;28;20052;-59
2023/06/09 09:15:49;;;;;;;6.25;4.40;;;;;;;29.57;30.77;93577.94;5025937;28;20046;-62
2023/06/09 09:18:17;;;;;;;5.22;4.70;;;;;;;30.22;30.28;93564.81;5022294;28;20046;-63
2023/06/09 09:20:44;;;;;;;7.77;4.70;;;;;;;28.81;30.52;93581.34;5028671;28;20466;-61
2023/06/09 09:23:12;;;;;;;6.88;4.75;;;;;;;30.37;30.29;93569.84;5028721;28;20461;-65
2023/06/09 09:25:38;;;;;;;5.30;4.50;;;;;;;29.89;30.71;93576.97;5028991;28;20068;-65
2023/06/09 09:28:10;;;;;;;6.00;5.00;;;;;;;30.54;29.69;93574.28;5029209;28;20046;-59
2023/06/09 09:31:03;;;;;;;5.88;5.10;;;;;;;30.77;29.63;93569.53;5029284;28;20063;-68
2023/06/09 09:33:29;;;;;;;5.83;4.80;;;;;;;30.07;30.00;93567.50;5022810;28;21420;-59
2023/06/09 09:35:58;;;;;;;5.70;4.68;;;;;;;29.77;29.85;93565.91;5021777;28;20058;-65
2023/06/09 09:38:29;;;;;;;5.68;4.78;;;;;;;28.56;31.21;93556.16;5023499;28;20143;-64
2023/06/09 09:40:59;;;;;;;5.75;5.07;;;;;;;30.40;28.77;93565.88;5028507;28;20060;-59
2023/06/09 09:43:27;;;;;;;5.82;4.82;;;;;;;29.71;29.92;93564.50;5028868;28;20055;-66
2023/06/09 09:45:56;;;;;;;5.63;4.60;;;;;;;31.16;27.93;93559.16;5028349;28;20133;-63
2023/06/09 09:48:24;;;;;;;6.38;4.60;;;;;;;30.47;28.41;93553.13;5016447;28;20378;-65
2023/06/09 09:50:55;;;;;;;6.38;4.60;;;;;;;28.71;30.34;93561.25;5027977;28;20053;-64
2023/06/09 09:53:26;;;;;;;5.78;4.95;;;;;;;28.64;30.63;93542.91;5029003;28;20042;-66
2023/06/09 09:55:59;;;;;;;6.55;4.50;;;;;;;29.78;29.49;93547.66;5028404;28;20053;-66
2023/06/09 09:58:36;;;;;;;5.63;4.80;;;;;;;29.48;28.83;93551.66;5029005;28;20045;-60
2023/06/09 10:01:10;;;;;;;6.10;5.00;;;;;;;27.81;31.31;93555.16;5014768;28;20736;-58
2023/06/09 10:03:41;;;;;;;6.00;5.07;;;;;;;28.39;31.26;93550.81;5016457;28;20050;-60
2023/06/09 10:06:11;;;;;;;7.38;4.80;;;;;;;29.06;30.84;93551.53;5015355;28;20248;-58
2023/06/09 10:08:41;;;;;;;6.10;4.90;;;;;;;30.95;28.34;93541.50;5020341;28;20051;-56
2023/06/09 10:11:08;;;;;;;5.67;5.07;;;;;;;29.41;30.60;93546.66;5028303;28;20045;-61
2023/06/09 10:13:35;;;;;;;6.13;5.22;;;;;;;29.14;30.19;93546.00;5028340;28;20472;-64
2023/06/09 10:16:02;;;;;;;5.70;5.10;;;;;;;29.25;30.33;93542.91;4985563;28;20412;-58
2023/06/09 10:18:31;;;;;;;5.43;4.80;;;;;;;30.19;29.81;93539.69;5009089;28;20042;-59
2023/06/09 10:20:58;;;;;;;6.43;4.95;;;;;;;31.36;28.02;93532.00;5008498;28;20525;-59
2023/06/09 10:23:26;;;;;;;6.50;5.43;;;;;;;29.30;29.71;93538.47;4990185;28;20133;-62
2023/06/09 10:25:53;;;;;;;6.70;5.35;;;;;;;29.12;30.98;93539.38;4987292;28;20485;-62
2023/06/09 10:28:20;;;;;;;6.93;5.25;;;;;;;29.41;30.42;93535.38;4988014;28;20056;-59
2023/06/09 10:30:49;;;;;;;5.93;5.10;;;;;;;29.39;30.61;93526.69;5000134;28;20072;-59
2023/06/09 10:33:28;;;;;;;6.18;5.57;;;;;;;28.01;33.06;93533.28;4997816;28;20050;-61
2023/06/09 10:35:58;;;;;;;6.17;5.40;;;;;;;27.24;34.19;93532.69;5008202;28;20088;-61
2023/06/09 10:38:30;;;;;;;8.38;5.50;;;;;;;28.64;32.51;93533.69;5008635;28;20054;-59
2023/06/09 10:41:18;;;;;;;6.72;5.80;;;;;;;27.97;32.35;93525.16;5008100;28;20067;-57
2023/06/09 10:43:58;;;;;;;6.80;5.80;;;;;;;27.75;32.88;93522.69;5008401;28;20406;-66
2023/06/09 10:46:44;;;;;;;7.72;6.00;;;;;;;26.29;35.72;93526.97;5007649;28;20060;-65
2023/06/09 10:49:29;;;;;;;7.83;6.10;;;;;;;26.45;35.43;93525.25;5023044;28;20057;-58
2023/06/09 10:51:56;;;;;;;7.60;6.25;;;;;;;25.52;37.06;93539.16;5005396;28;20054;-57
2023/06/09 10:54:26;;;;;;;7.75;5.95;;;;;;;25.81;36.97;93517.19;5019447;28;20042;-57
2023/06/09 10:57:02;;;;;;;7.93;6.10;;;;;;;26.12;35.94;93523.59;5027616;28;20111;-59
2023/06/09 10:59:30;;;;;;;7.75;6.07;;;;;;;26.73;36.18;93507.28;5029571;28;20041;-58
2023/06/09 11:02:02;;;;;;;7.33;5.87;;;;;;;26.45;36.09;93514.00;5010275;28;20149;-57
2023/06/09 11:04:49;;;;;;;6.85;6.07;;;;;;;25.97;37.67;93507.09;5031710;28;20187;-58
2023/06/09 11:07:19;;;;;;;10.75;7.15;;;;;;;24.35;40.74;93515.28;4998096;28;20050;-65
2023/06/09 11:09:51;;;;;;;7.22;6.28;;;;;;;26.05;36.46;93510.09;5006045;28;20045;-57
2023/06/09 11:12:27;;;;;;;7.53;6.57;;;;;;;26.49;37.17;93505.25;5012051;28;20045;-58
2023/06/09 11:14:58;;;;;;;7.50;6.70;;;;;;;25.70;37.81;93508.88;5009943;28;20052;-59
2023/06/09 11:17:36;;;;;;;7.90;7.10;;;;;;;23.98;41.43;93508.03;5024837;28;20040;-58
2023/06/09 11:20:06;;;;;;;8.98;7.10;;;;;;;25.36;39.77;93511.97;5011413;28;21631;-57
2023/06/09 11:22:33;;;;;;;7.93;6.70;;;;;;;26.31;38.06;93501.88;5012047;28;20149;-57
2023/06/09 11:25:00;;;;;;;8.00;7.20;;;;;;;25.04;38.76;93508.84;5030195;28;20056;-58
2023/06/09 11:27:27;;;;;;;8.37;7.07;;;;;;;23.78;41.71;93511.88;5031285;28;20574;-59
2023/06/09 11:30:07;;;;;;;9.80;6.97;;;;;;;24.33;40.89;93505.38;5027345;28;20044;-58